sensor_id;sensor_type;location;lat;lon;timestamp;P1;durP1;ratioP1;P2;durP2;ratioP2
15340;SDS011;7770;52.158;5.372;2023-03-01T00:02:34;24.83;;;16.77;;
15340;SDS011;7770;52.158;5.372;2023-03-01T00:05:21;24.33;;;16.97;;
15340;SDS011;7770;52.158;5.372;2023-03-01T00:08:07;20.80;;;16.40;;
15340;SDS011;7770;52.158;5.372;2023-03-01T00:11:00;25.50;;;17.97;;
15340;SDS011;7770;52.158;5.372;2023-03-01T00:13:57;22.90;;;16.50;;
15340;SDS011;7770;52.158;5.372;2023-03-01T00:16:46;22.90;;;15.90;;
15340;SDS011;7770;52.158;5.372;2023-03-01T00:19:32;20.37;;;15.87;;
15340;SDS011;7770;52.158;5.372;2023-03-01T00:22:18;20.60;;;15.70;;
15340;SDS011;7770;52.158;5.372;2023-03-01T00:25:04;20.97;;;15.10;;
15340;SDS011;7770;52.158;5.372;2023-03-01T00:27:50;20.33;;;15.87;;
15340;SDS011;7770;52.158;5.372;2023-03-01T00:30:36;23.07;;;16.23;;
15340;SDS011;7770;52.158;5.372;2023-03-01T00:33:22;21.07;;;15.57;;
15340;SDS011;7770;52.158;5.372;2023-03-01T00:36:08;22.50;;;16.90;;
15340;SDS011;7770;52.158;5.372;2023-03-01T00:38:56;25.40;;;17.23;;
15340;SDS011;7770;52.158;5.372;2023-03-01T00:41:42;23.30;;;15.83;;
15340;SDS011;7770;52.158;5.372;2023-03-01T00:44:29;23.10;;;16.80;;
15340;SDS011;7770;52.158;5.372;2023-03-01T00:47:15;22.90;;;16.63;;
15340;SDS011;7770;52.158;5.372;2023-03-01T00:50:01;22.33;;;17.47;;
15340;SDS011;7770;52.158;5.372;2023-03-01T00:52:51;22.23;;;16.97;;
15340;SDS011;7770;52.158;5.372;2023-03-01T00:55:39;23.57;;;17.30;;
15340;SDS011;7770;52.158;5.372;2023-03-01T00:58:25;24.63;;;18.20;;
15340;SDS011;7770;52.158;5.372;2023-03-01T01:01:13;25.97;;;17.17;;
15340;SDS011;7770;52.158;5.372;2023-03-01T01:04:10;23.47;;;16.77;;
15340;SDS011;7770;52.158;5.372;2023-03-01T01:06:57;26.87;;;17.93;;
15340;SDS011;7770;52.158;5.372;2023-03-01T01:09:43;23.30;;;17.27;;
15340;SDS011;7770;52.158;5.372;2023-03-01T01:12:29;25.23;;;17.87;;
15340;SDS011;7770;52.158;5.372;2023-03-01T01:15:15;25.07;;;17.07;;
15340;SDS011;7770;52.158;5.372;2023-03-01T01:18:01;24.83;;;17.47;;
15340;SDS011;7770;52.158;5.372;2023-03-01T01:20:48;24.47;;;18.07;;
15340;SDS011;7770;52.158;5.372;2023-03-01T01:23:34;25.63;;;18.20;;
15340;SDS011;7770;52.158;5.372;2023-03-01T01:26:30;26.90;;;18.10;;
15340;SDS011;7770;52.158;5.372;2023-03-01T01:29:18;23.93;;;17.23;;
15340;SDS011;7770;52.158;5.372;2023-03-01T01:32:04;23.13;;;17.13;;
15340;SDS011;7770;52.158;5.372;2023-03-01T01:34:50;22.77;;;17.77;;
15340;SDS011;7770;52.158;5.372;2023-03-01T01:37:36;25.20;;;18.17;;
15340;SDS011;7770;52.158;5.372;2023-03-01T01:40:22;27.30;;;18.27;;
15340;SDS011;7770;52.158;5.372;2023-03-01T01:43:13;26.70;;;18.83;;
15340;SDS011;7770;52.158;5.372;2023-03-01T01:46:23;27.13;;;18.90;;
15340;SDS011;7770;52.158;5.372;2023-03-01T01:49:29;26.60;;;18.87;;
15340;SDS011;7770;52.158;5.372;2023-03-01T01:52:29;28.10;;;18.67;;
15340;SDS011;7770;52.158;5.372;2023-03-01T01:55:21;29.27;;;19.13;;
15340;SDS011;7770;52.158;5.372;2023-03-01T01:58:13;29.13;;;18.13;;
15340;SDS011;7770;52.158;5.372;2023-03-01T02:01:04;26.57;;;17.83;;
15340;SDS011;7770;52.158;5.372;2023-03-01T02:03:50;26.10;;;18.50;;
15340;SDS011;7770;52.158;5.372;2023-03-01T02:06:38;24.23;;;17.47;;
15340;SDS011;7770;52.158;5.372;2023-03-01T02:09:30;25.90;;;18.40;;
15340;SDS011;7770;52.158;5.372;2023-03-01T02:12:18;23.93;;;18.07;;
15340;SDS011;7770;52.158;5.372;2023-03-01T02:15:09;26.97;;;18.50;;
15340;SDS011;7770;52.158;5.372;2023-03-01T02:17:55;28.83;;;19.57;;
15340;SDS011;7770;52.158;5.372;2023-03-01T02:23:46;27.43;;;17.97;;
15340;SDS011;7770;52.158;5.372;2023-03-01T02:29:24;25.30;;;18.23;;
15340;SDS011;7770;52.158;5.372;2023-03-01T02:32:12;25.90;;;18.67;;
15340;SDS011;7770;52.158;5.372;2023-03-01T02:35:00;24.50;;;18.33;;
15340;SDS011;7770;52.158;5.372;2023-03-01T02:37:47;26.37;;;18.63;;
15340;SDS011;7770;52.158;5.372;2023-03-01T02:40:34;27.37;;;19.17;;
15340;SDS011;7770;52.158;5.372;2023-03-01T02:43:24;26.90;;;19.23;;
15340;SDS011;7770;52.158;5.372;2023-03-01T02:46:17;28.17;;;19.03;;
15340;SDS011;7770;52.158;5.372;2023-03-01T02:49:22;28.13;;;18.90;;
15340;SDS011;7770;52.158;5.372;2023-03-01T02:55:38;31.97;;;21.00;;
15340;SDS011;7770;52.158;5.372;2023-03-01T02:58:24;28.90;;;20.80;;
15340;SDS011;7770;52.158;5.372;2023-03-01T03:01:11;31.17;;;21.43;;
15340;SDS011;7770;52.158;5.372;2023-03-01T03:04:00;28.67;;;20.80;;
15340;SDS011;7770;52.158;5.372;2023-03-01T03:06:46;30.70;;;20.80;;
15340;SDS011;7770;52.158;5.372;2023-03-01T03:09:35;32.67;;;21.70;;
15340;SDS011;7770;52.158;5.372;2023-03-01T03:12:21;34.83;;;21.67;;
15340;SDS011;7770;52.158;5.372;2023-03-01T03:15:08;32.67;;;22.00;;
15340;SDS011;7770;52.158;5.372;2023-03-01T03:17:58;31.17;;;21.33;;
15340;SDS011;7770;52.158;5.372;2023-03-01T03:20:44;36.30;;;21.73;;
15340;SDS011;7770;52.158;5.372;2023-03-01T03:23:31;29.87;;;20.47;;
15340;SDS011;7770;52.158;5.372;2023-03-01T03:26:17;30.43;;;20.63;;
15340;SDS011;7770;52.158;5.372;2023-03-01T03:29:03;29.23;;;20.37;;
15340;SDS011;7770;52.158;5.372;2023-03-01T03:31:49;29.23;;;20.23;;
15340;SDS011;7770;52.158;5.372;2023-03-01T03:34:35;31.43;;;20.60;;
15340;SDS011;7770;52.158;5.372;2023-03-01T03:37:21;30.10;;;20.20;;
15340;SDS011;7770;52.158;5.372;2023-03-01T03:40:25;29.53;;;20.13;;
15340;SDS011;7770;52.158;5.372;2023-03-01T03:43:21;30.13;;;20.20;;
15340;SDS011;7770;52.158;5.372;2023-03-01T03:46:09;30.20;;;20.97;;
15340;SDS011;7770;52.158;5.372;2023-03-01T03:48:56;29.17;;;20.07;;
15340;SDS011;7770;52.158;5.372;2023-03-01T03:51:44;31.30;;;20.80;;
15340;SDS011;7770;52.158;5.372;2023-03-01T03:54:31;32.37;;;22.23;;
15340;SDS011;7770;52.158;5.372;2023-03-01T03:57:17;32.03;;;22.00;;
15340;SDS011;7770;52.158;5.372;2023-03-01T04:00:04;33.77;;;21.97;;
15340;SDS011;7770;52.158;5.372;2023-03-01T04:02:58;33.90;;;22.23;;
15340;SDS011;7770;52.158;5.372;2023-03-01T04:05:46;33.83;;;21.03;;
15340;SDS011;7770;52.158;5.372;2023-03-01T04:08:32;33.50;;;20.80;;
15340;SDS011;7770;52.158;5.372;2023-03-01T04:11:18;27.63;;;20.00;;
15340;SDS011;7770;52.158;5.372;2023-03-01T04:14:13;31.87;;;22.07;;
15340;SDS011;7770;52.158;5.372;2023-03-01T04:16:59;30.23;;;22.13;;
15340;SDS011;7770;52.158;5.372;2023-03-01T04:19:45;32.73;;;21.83;;
15340;SDS011;7770;52.158;5.372;2023-03-01T04:22:33;31.97;;;21.83;;
15340;SDS011;7770;52.158;5.372;2023-03-01T04:25:20;29.10;;;21.00;;
15340;SDS011;7770;52.158;5.372;2023-03-01T04:28:07;33.37;;;22.30;;
15340;SDS011;7770;52.158;5.372;2023-03-01T04:30:55;34.07;;;22.07;;
15340;SDS011;7770;52.158;5.372;2023-03-01T04:33:44;32.37;;;22.43;;
15340;SDS011;7770;52.158;5.372;2023-03-01T04:36:32;33.73;;;21.60;;
15340;SDS011;7770;52.158;5.372;2023-03-01T04:39:20;35.50;;;23.33;;
15340;SDS011;7770;52.158;5.372;2023-03-01T04:42:07;35.23;;;22.13;;
15340;SDS011;7770;52.158;5.372;2023-03-01T04:44:53;32.13;;;21.33;;
15340;SDS011;7770;52.158;5.372;2023-03-01T04:47:39;33.33;;;22.93;;
15340;SDS011;7770;52.158;5.372;2023-03-01T04:50:28;32.23;;;22.03;;
15340;SDS011;7770;52.158;5.372;2023-03-01T04:53:14;36.20;;;22.60;;
15340;SDS011;7770;52.158;5.372;2023-03-01T04:56:00;35.80;;;23.77;;
15340;SDS011;7770;52.158;5.372;2023-03-01T04:58:46;34.13;;;21.73;;
15340;SDS011;7770;52.158;5.372;2023-03-01T05:01:32;33.47;;;21.50;;
15340;SDS011;7770;52.158;5.372;2023-03-01T05:04:20;29.77;;;20.50;;
15340;SDS011;7770;52.158;5.372;2023-03-01T05:07:10;36.00;;;22.07;;
15340;SDS011;7770;52.158;5.372;2023-03-01T05:09:58;33.30;;;22.20;;
15340;SDS011;7770;52.158;5.372;2023-03-01T05:12:44;33.80;;;22.93;;
15340;SDS011;7770;52.158;5.372;2023-03-01T05:15:30;31.77;;;21.80;;
15340;SDS011;7770;52.158;5.372;2023-03-01T05:18:17;34.77;;;22.40;;
15340;SDS011;7770;52.158;5.372;2023-03-01T05:21:07;33.43;;;22.50;;
15340;SDS011;7770;52.158;5.372;2023-03-01T05:23:58;35.57;;;23.17;;
15340;SDS011;7770;52.158;5.372;2023-03-01T05:26:44;33.30;;;21.40;;
15340;SDS011;7770;52.158;5.372;2023-03-01T05:29:33;34.47;;;23.30;;
15340;SDS011;7770;52.158;5.372;2023-03-01T05:32:20;35.57;;;23.67;;
15340;SDS011;7770;52.158;5.372;2023-03-01T05:35:06;36.23;;;22.97;;
15340;SDS011;7770;52.158;5.372;2023-03-01T05:37:52;32.77;;;22.30;;
15340;SDS011;7770;52.158;5.372;2023-03-01T05:40:38;32.07;;;21.70;;
15340;SDS011;7770;52.158;5.372;2023-03-01T05:43:26;35.00;;;22.10;;
15340;SDS011;7770;52.158;5.372;2023-03-01T05:46:15;33.03;;;22.03;;
15340;SDS011;7770;52.158;5.372;2023-03-01T05:49:01;32.00;;;21.97;;
15340;SDS011;7770;52.158;5.372;2023-03-01T05:51:48;35.20;;;22.37;;
15340;SDS011;7770;52.158;5.372;2023-03-01T05:54:37;34.03;;;21.93;;
15340;SDS011;7770;52.158;5.372;2023-03-01T05:57:23;34.23;;;22.73;;
15340;SDS011;7770;52.158;5.372;2023-03-01T06:00:11;31.87;;;21.57;;
15340;SDS011;7770;52.158;5.372;2023-03-01T06:02:59;36.57;;;24.00;;
15340;SDS011;7770;52.158;5.372;2023-03-01T06:05:46;33.63;;;23.20;;
15340;SDS011;7770;52.158;5.372;2023-03-01T06:08:32;39.67;;;25.00;;
15340;SDS011;7770;52.158;5.372;2023-03-01T06:11:18;39.30;;;24.03;;
15340;SDS011;7770;52.158;5.372;2023-03-01T06:14:06;37.10;;;23.97;;
15340;SDS011;7770;52.158;5.372;2023-03-01T06:16:53;37.50;;;24.30;;
15340;SDS011;7770;52.158;5.372;2023-03-01T06:19:39;35.53;;;23.23;;
15340;SDS011;7770;52.158;5.372;2023-03-01T06:22:25;34.87;;;23.27;;
15340;SDS011;7770;52.158;5.372;2023-03-01T06:25:13;39.07;;;23.90;;
15340;SDS011;7770;52.158;5.372;2023-03-01T06:28:02;40.60;;;24.70;;
15340;SDS011;7770;52.158;5.372;2023-03-01T06:30:49;48.50;;;30.50;;
15340;SDS011;7770;52.158;5.372;2023-03-01T06:33:36;50.37;;;33.60;;
15340;SDS011;7770;52.158;5.372;2023-03-01T06:36:23;56.17;;;35.47;;
15340;SDS011;7770;52.158;5.372;2023-03-01T06:39:09;50.57;;;30.80;;
15340;SDS011;7770;52.158;5.372;2023-03-01T06:41:55;46.03;;;30.40;;
15340;SDS011;7770;52.158;5.372;2023-03-01T06:44:41;52.17;;;30.27;;
15340;SDS011;7770;52.158;5.372;2023-03-01T06:47:27;47.43;;;30.37;;
15340;SDS011;7770;52.158;5.372;2023-03-01T06:50:14;44.23;;;27.70;;
15340;SDS011;7770;52.158;5.372;2023-03-01T06:53:01;42.23;;;28.57;;
15340;SDS011;7770;52.158;5.372;2023-03-01T06:55:53;44.53;;;29.20;;
15340;SDS011;7770;52.158;5.372;2023-03-01T06:58:42;43.83;;;28.17;;
15340;SDS011;7770;52.158;5.372;2023-03-01T07:01:29;46.10;;;28.33;;
15340;SDS011;7770;52.158;5.372;2023-03-01T07:04:15;40.27;;;26.83;;
15340;SDS011;7770;52.158;5.372;2023-03-01T07:07:01;42.13;;;27.67;;
15340;SDS011;7770;52.158;5.372;2023-03-01T07:09:48;40.07;;;26.23;;
15340;SDS011;7770;52.158;5.372;2023-03-01T07:12:34;41.37;;;27.13;;
15340;SDS011;7770;52.158;5.372;2023-03-01T07:15:21;40.97;;;26.63;;
15340;SDS011;7770;52.158;5.372;2023-03-01T07:18:07;47.90;;;28.17;;
15340;SDS011;7770;52.158;5.372;2023-03-01T07:20:53;39.10;;;26.43;;
15340;SDS011;7770;52.158;5.372;2023-03-01T07:23:39;38.23;;;25.60;;
15340;SDS011;7770;52.158;5.372;2023-03-01T07:26:25;35.47;;;22.83;;
15340;SDS011;7770;52.158;5.372;2023-03-01T07:29:11;32.10;;;22.70;;
15340;SDS011;7770;52.158;5.372;2023-03-01T07:31:57;31.10;;;21.30;;
15340;SDS011;7770;52.158;5.372;2023-03-01T07:34:43;31.43;;;22.47;;
15340;SDS011;7770;52.158;5.372;2023-03-01T07:37:29;33.27;;;22.87;;
15340;SDS011;7770;52.158;5.372;2023-03-01T07:40:15;32.97;;;22.87;;
15340;SDS011;7770;52.158;5.372;2023-03-01T07:43:02;30.47;;;24.17;;
15340;SDS011;7770;52.158;5.372;2023-03-01T07:45:49;32.53;;;24.13;;
15340;SDS011;7770;52.158;5.372;2023-03-01T07:48:35;37.33;;;22.47;;
15340;SDS011;7770;52.158;5.372;2023-03-01T07:51:21;32.20;;;23.67;;
15340;SDS011;7770;52.158;5.372;2023-03-01T07:54:07;29.33;;;23.87;;
15340;SDS011;7770;52.158;5.372;2023-03-01T07:56:53;29.53;;;22.70;;
15340;SDS011;7770;52.158;5.372;2023-03-01T07:59:40;30.40;;;24.40;;
15340;SDS011;7770;52.158;5.372;2023-03-01T08:02:35;29.03;;;24.77;;
15340;SDS011;7770;52.158;5.372;2023-03-01T08:05:21;30.77;;;23.60;;
15340;SDS011;7770;52.158;5.372;2023-03-01T08:08:07;28.27;;;24.00;;
15340;SDS011;7770;52.158;5.372;2023-03-01T08:10:56;29.50;;;24.30;;
15340;SDS011;7770;52.158;5.372;2023-03-01T08:13:43;29.30;;;24.57;;
15340;SDS011;7770;52.158;5.372;2023-03-01T08:16:29;29.37;;;25.37;;
15340;SDS011;7770;52.158;5.372;2023-03-01T08:19:15;29.20;;;25.13;;
15340;SDS011;7770;52.158;5.372;2023-03-01T08:22:01;27.70;;;24.97;;
15340;SDS011;7770;52.158;5.372;2023-03-01T08:24:48;28.00;;;25.03;;
15340;SDS011;7770;52.158;5.372;2023-03-01T08:27:34;26.67;;;24.07;;
15340;SDS011;7770;52.158;5.372;2023-03-01T08:30:20;26.67;;;23.97;;
15340;SDS011;7770;52.158;5.372;2023-03-01T08:33:06;27.13;;;24.53;;
15340;SDS011;7770;52.158;5.372;2023-03-01T08:35:52;26.30;;;23.63;;
15340;SDS011;7770;52.158;5.372;2023-03-01T08:38:38;25.00;;;22.73;;
15340;SDS011;7770;52.158;5.372;2023-03-01T08:41:24;25.43;;;22.70;;
15340;SDS011;7770;52.158;5.372;2023-03-01T08:44:12;26.50;;;23.90;;
15340;SDS011;7770;52.158;5.372;2023-03-01T08:46:59;25.33;;;23.03;;
15340;SDS011;7770;52.158;5.372;2023-03-01T08:49:45;23.53;;;21.53;;
15340;SDS011;7770;52.158;5.372;2023-03-01T08:52:31;21.60;;;19.70;;
15340;SDS011;7770;52.158;5.372;2023-03-01T08:55:18;20.03;;;18.10;;
15340;SDS011;7770;52.158;5.372;2023-03-01T08:58:05;16.70;;;15.17;;
15340;SDS011;7770;52.158;5.372;2023-03-01T09:00:51;17.40;;;15.77;;
15340;SDS011;7770;52.158;5.372;2023-03-01T09:03:37;30.17;;;26.57;;
15340;SDS011;7770;52.158;5.372;2023-03-01T09:06:23;16.70;;;15.00;;
15340;SDS011;7770;52.158;5.372;2023-03-01T09:09:13;15.57;;;13.97;;
15340;SDS011;7770;52.158;5.372;2023-03-01T09:12:02;18.73;;;16.97;;
15340;SDS011;7770;52.158;5.372;2023-03-01T09:14:49;14.53;;;13.30;;
15340;SDS011;7770;52.158;5.372;2023-03-01T09:17:35;12.20;;;10.90;;
15340;SDS011;7770;52.158;5.372;2023-03-01T09:20:21;11.10;;;10.10;;
15340;SDS011;7770;52.158;5.372;2023-03-01T09:23:07;14.37;;;13.10;;
15340;SDS011;7770;52.158;5.372;2023-03-01T09:25:54;10.13;;;9.10;;
15340;SDS011;7770;52.158;5.372;2023-03-01T09:28:40;11.00;;;9.83;;
15340;SDS011;7770;52.158;5.372;2023-03-01T09:31:29;10.50;;;9.40;;
15340;SDS011;7770;52.158;5.372;2023-03-01T09:34:15;10.03;;;9.03;;
15340;SDS011;7770;52.158;5.372;2023-03-01T09:37:07;8.10;;;7.30;;
15340;SDS011;7770;52.158;5.372;2023-03-01T09:39:53;8.10;;;7.27;;
15340;SDS011;7770;52.158;5.372;2023-03-01T09:42:44;8.10;;;7.30;;
15340;SDS011;7770;52.158;5.372;2023-03-01T09:45:41;7.00;;;6.30;;
15340;SDS011;7770;52.158;5.372;2023-03-01T09:48:33;8.00;;;7.20;;
15340;SDS011;7770;52.158;5.372;2023-03-01T09:51:32;7.97;;;7.17;;
15340;SDS011;7770;52.158;5.372;2023-03-01T09:54:20;8.83;;;7.20;;
15340;SDS011;7770;52.158;5.372;2023-03-01T10:03:58;8.13;;;6.43;;
15340;SDS011;7770;52.158;5.372;2023-03-01T10:07:13;7.00;;;6.37;;
15340;SDS011;7770;52.158;5.372;2023-03-01T10:09:54;8.10;;;6.50;;
15340;SDS011;7770;52.158;5.372;2023-03-01T10:12:41;7.37;;;5.90;;
15340;SDS011;7770;52.158;5.372;2023-03-01T10:15:38;6.83;;;6.13;;
15340;SDS011;7770;52.158;5.372;2023-03-01T10:18:33;6.93;;;6.23;;
15340;SDS011;7770;52.158;5.372;2023-03-01T10:21:22;7.87;;;7.00;;
15340;SDS011;7770;52.158;5.372;2023-03-01T10:24:10;7.73;;;6.33;;
15340;SDS011;7770;52.158;5.372;2023-03-01T10:30:35;6.10;;;5.50;;
15340;SDS011;7770;52.158;5.372;2023-03-01T10:33:28;6.03;;;5.50;;
15340;SDS011;7770;52.158;5.372;2023-03-01T10:36:18;8.57;;;5.77;;
15340;SDS011;7770;52.158;5.372;2023-03-01T10:39:05;6.80;;;6.00;;
15340;SDS011;7770;52.158;5.372;2023-03-01T10:42:03;7.23;;;6.43;;
15340;SDS011;7770;52.158;5.372;2023-03-01T10:44:53;8.03;;;7.17;;
15340;SDS011;7770;52.158;5.372;2023-03-01T10:47:40;8.43;;;7.63;;
15340;SDS011;7770;52.158;5.372;2023-03-01T10:50:26;7.10;;;6.40;;
15340;SDS011;7770;52.158;5.372;2023-03-01T10:53:22;6.67;;;6.07;;
15340;SDS011;7770;52.158;5.372;2023-03-01T10:56:18;9.10;;;8.20;;
15340;SDS011;7770;52.158;5.372;2023-03-01T10:59:04;6.27;;;5.50;;
15340;SDS011;7770;52.158;5.372;2023-03-01T11:02:15;5.47;;;4.97;;
15340;SDS011;7770;52.158;5.372;2023-03-01T11:05:22;10.23;;;9.20;;
15340;SDS011;7770;52.158;5.372;2023-03-01T11:08:09;7.03;;;6.23;;
15340;SDS011;7770;52.158;5.372;2023-03-01T11:11:04;9.07;;;8.10;;
15340;SDS011;7770;52.158;5.372;2023-03-01T11:14:20;8.20;;;5.93;;
15340;SDS011;7770;52.158;5.372;2023-03-01T11:17:12;8.13;;;6.03;;
15340;SDS011;7770;52.158;5.372;2023-03-01T11:23:01;5.93;;;5.33;;
15340;SDS011;7770;52.158;5.372;2023-03-01T11:25:55;9.17;;;5.57;;
15340;SDS011;7770;52.158;5.372;2023-03-01T11:28:50;5.67;;;5.07;;
15340;SDS011;7770;52.158;5.372;2023-03-01T11:31:41;5.77;;;5.27;;
15340;SDS011;7770;52.158;5.372;2023-03-01T11:34:36;5.60;;;5.10;;
15340;SDS011;7770;52.158;5.372;2023-03-01T11:37:36;5.63;;;5.10;;
15340;SDS011;7770;52.158;5.372;2023-03-01T11:43:58;5.83;;;5.33;;
15340;SDS011;7770;52.158;5.372;2023-03-01T11:47:01;5.23;;;4.57;;
15340;SDS011;7770;52.158;5.372;2023-03-01T11:50:27;5.97;;;5.00;;
15340;SDS011;7770;52.158;5.372;2023-03-01T11:57:28;6.17;;;5.57;;
15340;SDS011;7770;52.158;5.372;2023-03-01T12:00:58;7.03;;;5.70;;
15340;SDS011;7770;52.158;5.372;2023-03-01T12:10:28;7.83;;;6.07;;
15340;SDS011;7770;52.158;5.372;2023-03-01T12:19:29;6.50;;;5.10;;
15340;SDS011;7770;52.158;5.372;2023-03-01T12:22:31;5.83;;;5.20;;
15340;SDS011;7770;52.158;5.372;2023-03-01T12:34:42;7.17;;;6.23;;
15340;SDS011;7770;52.158;5.372;2023-03-01T12:38:25;8.07;;;6.37;;
15340;SDS011;7770;52.158;5.372;2023-03-01T12:41:27;7.33;;;6.10;;
15340;SDS011;7770;52.158;5.372;2023-03-01T12:51:08;6.57;;;5.47;;
15340;SDS011;7770;52.158;5.372;2023-03-01T12:54:01;6.60;;;5.00;;
15340;SDS011;7770;52.158;5.372;2023-03-01T12:57:02;8.30;;;4.87;;
15340;SDS011;7770;52.158;5.372;2023-03-01T13:03:29;7.67;;;5.73;;
15340;SDS011;7770;52.158;5.372;2023-03-01T13:06:54;8.30;;;6.10;;
15340;SDS011;7770;52.158;5.372;2023-03-01T13:13:14;7.50;;;5.80;;
15340;SDS011;7770;52.158;5.372;2023-03-01T13:19:28;6.23;;;5.10;;
15340;SDS011;7770;52.158;5.372;2023-03-01T13:22:36;8.67;;;6.10;;
15340;SDS011;7770;52.158;5.372;2023-03-01T13:25:21;6.87;;;5.63;;
15340;SDS011;7770;52.158;5.372;2023-03-01T13:34:39;7.47;;;5.23;;
15340;SDS011;7770;52.158;5.372;2023-03-01T13:37:44;6.50;;;5.57;;
15340;SDS011;7770;52.158;5.372;2023-03-01T13:43:46;8.40;;;6.07;;
15340;SDS011;7770;52.158;5.372;2023-03-01T13:46:33;5.50;;;4.70;;
15340;SDS011;7770;52.158;5.372;2023-03-01T13:49:23;7.47;;;6.23;;
15340;SDS011;7770;52.158;5.372;2023-03-01T13:52:39;9.03;;;6.23;;
15340;SDS011;7770;52.158;5.372;2023-03-01T13:55:36;7.43;;;6.07;;
15340;SDS011;7770;52.158;5.372;2023-03-01T13:58:28;7.93;;;5.87;;
15340;SDS011;7770;52.158;5.372;2023-03-01T14:01:28;9.43;;;5.90;;
15340;SDS011;7770;52.158;5.372;2023-03-01T14:04:20;7.90;;;6.27;;
15340;SDS011;7770;52.158;5.372;2023-03-01T14:07:17;8.60;;;5.63;;
15340;SDS011;7770;52.158;5.372;2023-03-01T14:10:06;6.97;;;6.07;;
15340;SDS011;7770;52.158;5.372;2023-03-01T14:16:24;7.53;;;5.73;;
15340;SDS011;7770;52.158;5.372;2023-03-01T14:19:17;8.17;;;7.00;;
15340;SDS011;7770;52.158;5.372;2023-03-01T14:22:19;8.20;;;5.73;;
15340;SDS011;7770;52.158;5.372;2023-03-01T14:28:17;8.00;;;5.93;;
15340;SDS011;7770;52.158;5.372;2023-03-01T14:34:24;7.03;;;6.07;;
15340;SDS011;7770;52.158;5.372;2023-03-01T14:40:19;10.73;;;5.60;;
15340;SDS011;7770;52.158;5.372;2023-03-01T14:43:18;9.33;;;6.27;;
15340;SDS011;7770;52.158;5.372;2023-03-01T14:46:16;6.77;;;6.00;;
15340;SDS011;7770;52.158;5.372;2023-03-01T14:49:13;8.97;;;7.13;;
15340;SDS011;7770;52.158;5.372;2023-03-01T14:52:04;6.80;;;5.53;;
15340;SDS011;7770;52.158;5.372;2023-03-01T14:54:53;8.73;;;6.20;;
15340;SDS011;7770;52.158;5.372;2023-03-01T14:57:42;7.20;;;6.23;;
15340;SDS011;7770;52.158;5.372;2023-03-01T15:00:31;9.17;;;6.43;;
15340;SDS011;7770;52.158;5.372;2023-03-01T15:03:27;6.67;;;5.97;;
15340;SDS011;7770;52.158;5.372;2023-03-01T15:06:25;5.87;;;5.07;;
15340;SDS011;7770;52.158;5.372;2023-03-01T15:09:14;8.20;;;6.53;;
15340;SDS011;7770;52.158;5.372;2023-03-01T15:12:23;6.83;;;6.13;;
15340;SDS011;7770;52.158;5.372;2023-03-01T15:18:22;7.13;;;5.93;;
15340;SDS011;7770;52.158;5.372;2023-03-01T15:21:35;9.43;;;7.00;;
15340;SDS011;7770;52.158;5.372;2023-03-01T15:24:25;9.70;;;7.07;;
15340;SDS011;7770;52.158;5.372;2023-03-01T15:27:19;7.73;;;6.63;;
15340;SDS011;7770;52.158;5.372;2023-03-01T15:30:13;9.13;;;6.17;;
15340;SDS011;7770;52.158;5.372;2023-03-01T15:33:16;7.90;;;5.87;;
15340;SDS011;7770;52.158;5.372;2023-03-01T15:39:33;9.73;;;6.90;;
15340;SDS011;7770;52.158;5.372;2023-03-01T15:42:38;7.00;;;6.23;;
15340;SDS011;7770;52.158;5.372;2023-03-01T15:45:25;10.70;;;6.90;;
15340;SDS011;7770;52.158;5.372;2023-03-01T15:48:15;8.73;;;6.67;;
15340;SDS011;7770;52.158;5.372;2023-03-01T15:51:09;11.63;;;8.47;;
15340;SDS011;7770;52.158;5.372;2023-03-01T15:53:59;8.97;;;7.23;;
15340;SDS011;7770;52.158;5.372;2023-03-01T15:56:49;7.30;;;6.50;;
15340;SDS011;7770;52.158;5.372;2023-03-01T15:59:35;7.50;;;6.70;;
15340;SDS011;7770;52.158;5.372;2023-03-01T16:02:22;9.30;;;7.50;;
15340;SDS011;7770;52.158;5.372;2023-03-01T16:05:15;9.13;;;7.40;;
15340;SDS011;7770;52.158;5.372;2023-03-01T16:08:16;8.70;;;6.63;;
15340;SDS011;7770;52.158;5.372;2023-03-01T16:11:04;6.83;;;5.47;;
15340;SDS011;7770;52.158;5.372;2023-03-01T16:13:56;9.40;;;6.47;;
15340;SDS011;7770;52.158;5.372;2023-03-01T16:16:42;7.67;;;5.37;;
15340;SDS011;7770;52.158;5.372;2023-03-01T16:19:29;11.77;;;7.23;;
15340;SDS011;7770;52.158;5.372;2023-03-01T16:22:15;9.33;;;7.30;;
15340;SDS011;7770;52.158;5.372;2023-03-01T16:25:01;10.90;;;7.47;;
15340;SDS011;7770;52.158;5.372;2023-03-01T16:27:49;8.10;;;7.20;;
15340;SDS011;7770;52.158;5.372;2023-03-01T16:30:36;8.20;;;6.90;;
15340;SDS011;7770;52.158;5.372;2023-03-01T16:33:24;14.73;;;12.53;;
15340;SDS011;7770;52.158;5.372;2023-03-01T16:36:11;9.07;;;6.03;;
15340;SDS011;7770;52.158;5.372;2023-03-01T16:38:58;10.63;;;5.93;;
15340;SDS011;7770;52.158;5.372;2023-03-01T16:41:45;8.53;;;5.33;;
15340;SDS011;7770;52.158;5.372;2023-03-01T16:44:31;8.20;;;7.03;;
15340;SDS011;7770;52.158;5.372;2023-03-01T16:47:17;10.10;;;6.80;;
15340;SDS011;7770;52.158;5.372;2023-03-01T16:50:03;9.03;;;6.70;;
15340;SDS011;7770;52.158;5.372;2023-03-01T16:52:50;11.53;;;7.57;;
15340;SDS011;7770;52.158;5.372;2023-03-01T16:55:36;10.10;;;6.37;;
15340;SDS011;7770;52.158;5.372;2023-03-01T16:58:23;10.23;;;7.03;;
15340;SDS011;7770;52.158;5.372;2023-03-01T17:01:14;9.73;;;8.10;;
15340;SDS011;7770;52.158;5.372;2023-03-01T17:04:03;12.23;;;10.37;;
15340;SDS011;7770;52.158;5.372;2023-03-01T17:06:49;8.50;;;6.13;;
15340;SDS011;7770;52.158;5.372;2023-03-01T17:09:36;11.30;;;9.30;;
15340;SDS011;7770;52.158;5.372;2023-03-01T17:12:22;10.53;;;9.03;;
15340;SDS011;7770;52.158;5.372;2023-03-01T17:15:08;10.30;;;7.13;;
15340;SDS011;7770;52.158;5.372;2023-03-01T17:17:57;10.50;;;7.07;;
15340;SDS011;7770;52.158;5.372;2023-03-01T17:20:43;13.27;;;8.90;;
15340;SDS011;7770;52.158;5.372;2023-03-01T17:23:29;10.40;;;9.00;;
15340;SDS011;7770;52.158;5.372;2023-03-01T17:26:16;13.20;;;10.77;;
15340;SDS011;7770;52.158;5.372;2023-03-01T17:29:02;13.30;;;10.60;;
15340;SDS011;7770;52.158;5.372;2023-03-01T17:31:49;8.93;;;6.73;;
15340;SDS011;7770;52.158;5.372;2023-03-01T17:34:35;25.87;;;22.77;;
15340;SDS011;7770;52.158;5.372;2023-03-01T17:37:22;15.43;;;10.13;;
15340;SDS011;7770;52.158;5.372;2023-03-01T17:40:09;74.13;;;50.60;;
15340;SDS011;7770;52.158;5.372;2023-03-01T17:42:56;33.80;;;24.83;;
15340;SDS011;7770;52.158;5.372;2023-03-01T17:45:43;10.40;;;8.23;;
15340;SDS011;7770;52.158;5.372;2023-03-01T17:48:34;25.83;;;19.13;;
15340;SDS011;7770;52.158;5.372;2023-03-01T17:51:21;13.27;;;10.10;;
15340;SDS011;7770;52.158;5.372;2023-03-01T17:54:07;14.40;;;11.27;;
15340;SDS011;7770;52.158;5.372;2023-03-01T17:56:53;9.70;;;8.13;;
15340;SDS011;7770;52.158;5.372;2023-03-01T17:59:40;10.67;;;8.50;;
15340;SDS011;7770;52.158;5.372;2023-03-01T18:02:26;12.33;;;8.10;;
15340;SDS011;7770;52.158;5.372;2023-03-01T18:05:13;10.47;;;7.37;;
15340;SDS011;7770;52.158;5.372;2023-03-01T18:07:59;7.97;;;6.67;;
15340;SDS011;7770;52.158;5.372;2023-03-01T18:10:45;10.10;;;7.73;;
15340;SDS011;7770;52.158;5.372;2023-03-01T18:13:31;10.87;;;7.77;;
15340;SDS011;7770;52.158;5.372;2023-03-01T18:16:17;10.37;;;8.70;;
15340;SDS011;7770;52.158;5.372;2023-03-01T18:19:04;11.30;;;8.87;;
15340;SDS011;7770;52.158;5.372;2023-03-01T18:21:50;10.83;;;8.47;;
15340;SDS011;7770;52.158;5.372;2023-03-01T18:24:36;55.33;;;43.53;;
15340;SDS011;7770;52.158;5.372;2023-03-01T18:27:23;163.40;;;113.97;;
15340;SDS011;7770;52.158;5.372;2023-03-01T18:30:10;12.30;;;9.63;;
15340;SDS011;7770;52.158;5.372;2023-03-01T18:32:58;11.67;;;9.23;;
15340;SDS011;7770;52.158;5.372;2023-03-01T18:35:44;11.80;;;8.30;;
15340;SDS011;7770;52.158;5.372;2023-03-01T18:38:30;12.90;;;8.93;;